Time;durP1;ratioP1;P1;durP2;ratioP2;P2;SDS_P1;SDS_P2;PMS_P1;PMS_P2;Temp;Humidity;BMP_temperature;BMP_pressure;BME280_temperature;BME280_humidity;BME280_pressure;Samples;Min_cycle;Max_cycle;Signal;HPM_P1;HPM_P2
2024/04/14 00:00:52;;;;;;;;;;;19.60;54.40;;;;;;5264969;26;86459;-39
2024/04/14 00:03:17;;;;;;;;;;;19.60;54.40;;;;;;5288828;26;85595;-39
2024/04/14 00:05:43;;;;;;;;;;;19.50;54.40;;;;;;5286286;26;87048;-39
2024/04/14 00:08:09;;;;;;;;;;;19.50;54.50;;;;;;5283816;26;85287;-39
2024/04/14 00:10:35;;;;;;;;;;;19.50;54.40;;;;;;5295957;26;85971;-39
2024/04/14 00:13:00;;;;;;;;;;;19.50;54.40;;;;;;5270805;26;85357;-39
2024/04/14 00:15:26;;;;;;;;;;;19.50;54.40;;;;;;5289807;26;85381;-39
2024/04/14 00:17:52;;;;;;;;;;;19.50;54.40;;;;;;5272959;26;85829;-39
2024/04/14 00:20:17;;;;;;;;;;;19.50;54.50;;;;;;5283384;26;85272;-40
2024/04/14 00:22:43;;;;;;;;;;;19.50;54.50;;;;;;5293494;26;85624;-39
2024/04/14 00:25:09;;;;;;;;;;;19.50;54.50;;;;;;5265077;26;86899;-39
2024/04/14 00:27:35;;;;;;;;;;;19.40;54.40;;;;;;5293262;26;85293;-39
2024/04/14 00:30:01;;;;;;;;;;;19.40;54.50;;;;;;5272527;26;86633;-40
2024/04/14 00:32:26;;;;;;;;;;;19.40;54.40;;;;;;5286726;26;86113;-39
2024/04/14 00:34:52;;;;;;;;;;;19.40;54.50;;;;;;5287856;26;85380;-39
2024/04/14 00:37:18;;;;;;;;;;;19.40;54.50;;;;;;5267783;26;85713;-39
2024/04/14 00:39:43;;;;;;;;;;;19.40;54.50;;;;;;5303297;26;85219;-39
2024/04/14 00:42:09;;;;;;;;;;;19.30;54.50;;;;;;5277946;26;86587;-39
2024/04/14 00:44:35;;;;;;;;;;;19.40;54.50;;;;;;5284940;26;87048;-39
2024/04/14 00:47:05;;;;;;;;;;;19.30;54.40;;;;;;5281230;26;84849;-40
2024/04/14 00:49:31;;;;;;;;;;;19.30;54.50;;;;;;5281248;26;85949;-39
2024/04/14 00:51:59;;;;;;;;;;;19.30;54.50;;;;;;5287789;26;85817;-39
2024/04/14 00:54:25;;;;;;;;;;;19.30;54.50;;;;;;5282780;26;86102;-41
2024/04/14 00:56:51;;;;;;;;;;;19.20;54.50;;;;;;5295658;26;86173;-39
2024/04/14 00:59:17;;;;;;;;;;;19.20;54.50;;;;;;5276290;26;85301;-40
2024/04/14 01:01:42;;;;;;;;;;;19.20;54.50;;;;;;5286212;26;86642;-39
2024/04/14 01:04:08;;;;;;;;;;;19.20;54.40;;;;;;5295539;26;86810;-39
2024/04/14 01:06:37;;;;;;;;;;;19.20;54.50;;;;;;5282002;26;85730;-38
2024/04/14 01:09:05;;;;;;;;;;;19.20;54.50;;;;;;5291558;26;86546;-39
2024/04/14 01:11:31;;;;;;;;;;;19.20;54.40;;;;;;5266221;26;86392;-39
2024/04/14 01:13:56;;;;;;;;;;;19.20;54.40;;;;;;5290894;26;85435;-39
2024/04/14 01:16:22;;;;;;;;;;;19.10;54.40;;;;;;5295076;26;86903;-39
2024/04/14 01:18:48;;;;;;;;;;;19.10;54.50;;;;;;5281349;26;86867;-39
2024/04/14 01:21:13;;;;;;;;;;;19.10;54.40;;;;;;5289819;26;86170;-39
2024/04/14 01:23:39;;;;;;;;;;;19.10;54.50;;;;;;5272319;26;86480;-39
2024/04/14 01:26:04;;;;;;;;;;;19.10;54.40;;;;;;5291251;26;85649;-38
2024/04/14 01:28:30;;;;;;;;;;;19.00;54.40;;;;;;5278211;26;87188;-39
2024/04/14 01:30:56;;;;;;;;;;;19.00;54.50;;;;;;5283977;26;86850;-39
2024/04/14 01:33:21;;;;;;;;;;;19.00;54.50;;;;;;5291453;26;85315;-39
2024/04/14 01:35:47;;;;;;;;;;;19.00;54.50;;;;;;5271235;26;85343;-39
2024/04/14 01:38:12;;;;;;;;;;;19.00;54.50;;;;;;5297510;26;85326;-39
2024/04/14 01:40:38;;;;;;;;;;;19.00;54.50;;;;;;5290487;26;85268;-39
2024/04/14 01:43:04;;;;;;;;;;;18.90;54.40;;;;;;5286497;26;88240;-39
2024/04/14 01:45:29;;;;;;;;;;;18.90;54.40;;;;;;5287850;26;85471;-39
2024/04/14 01:47:55;;;;;;;;;;;18.90;54.40;;;;;;5278331;26;85527;-39
2024/04/14 01:50:20;;;;;;;;;;;18.90;54.40;;;;;;5297933;26;87717;-39
2024/04/14 01:52:46;;;;;;;;;;;18.90;54.50;;;;;;5273192;26;85280;-38
2024/04/14 01:55:12;;;;;;;;;;;18.90;54.50;;;;;;5282841;26;85492;-39
2024/04/14 01:57:38;;;;;;;;;;;18.80;54.50;;;;;;5294590;26;85355;-39
2024/04/14 02:00:04;;;;;;;;;;;18.80;54.60;;;;;;5283106;26;86475;-38
2024/04/14 02:02:29;;;;;;;;;;;18.80;54.50;;;;;;5298610;26;87172;-39
2024/04/14 02:04:55;;;;;;;;;;;18.80;54.50;;;;;;5270134;26;85335;-39
2024/04/14 02:07:21;;;;;;;;;;;18.80;54.50;;;;;;5291746;26;86620;-39
2024/04/14 02:09:46;;;;;;;;;;;18.80;54.40;;;;;;5284492;26;87294;-39
2024/04/14 02:12:12;;;;;;;;;;;18.70;54.50;;;;;;5282200;26;85454;-39
2024/04/14 02:14:37;;;;;;;;;;;18.70;54.50;;;;;;5296056;26;86877;-39
2024/04/14 02:17:03;;;;;;;;;;;18.70;54.40;;;;;;5282517;26;85785;-38
2024/04/14 02:19:29;;;;;;;;;;;18.70;55.00;;;;;;5282935;26;87453;-39
2024/04/14 02:21:54;;;;;;;;;;;18.70;54.50;;;;;;5281704;26;87022;-39
2024/04/14 02:24:20;;;;;;;;;;;18.60;54.40;;;;;;5283486;26;84515;-40
2024/04/14 02:26:45;;;;;;;;;;;18.60;54.40;;;;;;5297499;26;85656;-39
2024/04/14 02:29:11;;;;;;;;;;;18.60;54.50;;;;;;5281168;26;87177;-39
2024/04/14 02:31:36;;;;;;;;;;;18.60;54.50;;;;;;5297150;26;86671;-39
2024/04/14 02:34:02;;;;;;;;;;;18.60;54.50;;;;;;5271088;26;86408;-39
2024/04/14 02:36:28;;;;;;;;;;;18.60;54.50;;;;;;5279639;26;87880;-39
2024/04/14 02:38:54;;;;;;;;;;;18.60;54.50;;;;;;5292575;26;85217;-39
2024/04/14 02:41:19;;;;;;;;;;;18.50;54.50;;;;;;5276676;26;85959;-39
2024/04/14 02:43:45;;;;;;;;;;;18.50;54.40;;;;;;5296843;26;85349;-39
2024/04/14 02:46:11;;;;;;;;;;;18.50;54.50;;;;;;5279016;26;85670;-39
2024/04/14 02:48:37;;;;;;;;;;;18.50;54.50;;;;;;5298286;26;86295;-39
2024/04/14 02:51:03;;;;;;;;;;;18.50;54.50;;;;;;5292044;26;86031;-39
2024/04/14 02:53:29;;;;;;;;;;;18.50;54.50;;;;;;5275901;26;87541;-39
2024/04/14 02:55:55;;;;;;;;;;;18.40;54.50;;;;;;5296847;26;86762;-39
2024/04/14 02:58:20;;;;;;;;;;;18.40;54.50;;;;;;5272412;26;85563;-38
2024/04/14 03:00:46;;;;;;;;;;;18.40;54.50;;;;;;5296450;26;85325;-39
2024/04/14 03:03:11;;;;;;;;;;;18.40;54.50;;;;;;5288941;26;85279;-39
2024/04/14 03:05:37;;;;;;;;;;;18.40;54.50;;;;;;5268325;26;86712;-39
2024/04/14 03:08:05;;;;;;;;;;;18.40;54.50;;;;;;5296585;26;86986;-38
2024/04/14 03:10:31;;;;;;;;;;;18.30;54.50;;;;;;5275462;26;85358;-39
2024/04/14 03:12:57;;;;;;;;;;;18.30;54.60;;;;;;5294592;26;85167;-39
2024/04/14 03:15:22;;;;;;;;;;;18.30;54.50;;;;;;5283052;26;86062;-39
2024/04/14 03:17:48;;;;;;;;;;;18.30;54.50;;;;;;5285103;26;87300;-39
2024/04/14 03:20:13;;;;;;;;;;;18.30;54.50;;;;;;5290485;26;86579;-39
2024/04/14 03:22:39;;;;;;;;;;;18.30;54.50;;;;;;5289893;26;87040;-39
2024/04/14 03:25:05;;;;;;;;;;;18.30;54.50;;;;;;5295895;26;85837;-38
2024/04/14 03:27:31;;;;;;;;;;;18.20;54.50;;;;;;5267122;26;87000;-39
2024/04/14 03:29:56;;;;;;;;;;;18.20;54.50;;;;;;5294247;26;85323;-39
2024/04/14 03:32:22;;;;;;;;;;;18.20;54.50;;;;;;5291495;26;86230;-39
2024/04/14 03:34:50;;;;;;;;;;;18.20;54.50;;;;;;5284704;26;86702;-39
2024/04/14 03:37:16;;;;;;;;;;;18.20;54.50;;;;;;5294649;26;85144;-39
2024/04/14 03:39:41;;;;;;;;;;;18.20;54.50;;;;;;5276152;26;85783;-39
2024/04/14 03:42:07;;;;;;;;;;;18.10;54.50;;;;;;5298003;26;85761;-39
2024/04/14 03:44:33;;;;;;;;;;;18.10;54.50;;;;;;5279533;26;87001;-39
2024/04/14 03:46:58;;;;;;;;;;;18.10;54.50;;;;;;5281162;26;85914;-39
2024/04/14 03:49:24;;;;;;;;;;;18.00;54.50;;;;;;5297921;26;85253;-38
2024/04/14 03:51:49;;;;;;;;;;;18.10;54.50;;;;;;5275397;26;86605;-39
2024/04/14 03:54:15;;;;;;;;;;;18.00;54.50;;;;;;5299941;26;86867;-38
2024/04/14 03:56:40;;;;;;;;;;;18.00;54.50;;;;;;5280956;26;85319;-39
2024/04/14 03:59:06;;;;;;;;;;;18.00;54.50;;;;;;5284013;26;85566;-38
2024/04/14 04:01:31;;;;;;;;;;;18.00;54.50;;;;;;5280925;26;85283;-38
2024/04/14 04:03:57;;;;;;;;;;;18.00;54.50;;;;;;5288163;26;85305;-39
2024/04/14 04:06:23;;;;;;;;;;;18.00;54.50;;;;;;5300322;26;86902;-38
2024/04/14 04:08:48;;;;;;;;;;;17.90;54.40;;;;;;5269503;26;86429;-38
2024/04/14 04:11:14;;;;;;;;;;;17.90;54.50;;;;;;5293903;26;86662;-39
2024/04/14 04:13:40;;;;;;;;;;;17.90;54.50;;;;;;5278176;26;87246;-39
2024/04/14 04:16:06;;;;;;;;;;;17.90;54.40;;;;;;5288868;26;85339;-38
2024/04/14 04:18:32;;;;;;;;;;;17.90;54.50;;;;;;5294705;26;85176;-39
2024/04/14 04:20:59;;;;;;;;;;;17.90;54.50;;;;;;5275854;26;86393;-39
2024/04/14 04:23:26;;;;;;;;;;;17.90;54.50;;;;;;5283562;26;86437;-38
2024/04/14 04:25:52;;;;;;;;;;;17.80;54.50;;;;;;5279971;26;84591;-39
2024/04/14 04:28:17;;;;;;;;;;;17.80;54.50;;;;;;5285078;26;85748;-39
2024/04/14 04:30:43;;;;;;;;;;;17.80;54.50;;;;;;5298215;26;85569;-39
2024/04/14 04:33:09;;;;;;;;;;;17.80;54.50;;;;;;5273779;26;86917;-39
2024/04/14 04:35:34;;;;;;;;;;;17.80;54.50;;;;;;5294947;26;85223;-38
2024/04/14 04:38:01;;;;;;;;;;;17.80;54.50;;;;;;5279524;26;87087;-39
2024/04/14 04:40:27;;;;;;;;;;;17.80;54.50;;;;;;5282738;26;87035;-38
2024/04/14 04:42:52;;;;;;;;;;;17.70;54.50;;;;;;5288532;26;85331;-39
2024/04/14 04:45:18;;;;;;;;;;;17.70;54.50;;;;;;5277506;26;86784;-39
2024/04/14 04:47:44;;;;;;;;;;;17.70;54.50;;;;;;5292069;26;85718;-39
2024/04/14 04:50:09;;;;;;;;;;;17.60;54.50;;;;;;5284250;26;84993;-38
2024/04/14 04:52:35;;;;;;;;;;;17.70;54.60;;;;;;5295936;26;87045;-38
2024/04/14 04:55:01;;;;;;;;;;;17.70;54.60;;;;;;5282661;26;85369;-39
2024/04/14 04:57:26;;;;;;;;;;;17.70;54.60;;;;;;5283513;26;88755;-38
2024/04/14 04:59:52;;;;;;;;;;;17.60;54.50;;;;;;5292585;26;85744;-39
2024/04/14 05:02:17;;;;;;;;;;;17.60;54.50;;;;;;5265362;26;86084;-39
2024/04/14 05:04:43;;;;;;;;;;;17.60;54.60;;;;;;5288773;26;86686;-38
2024/04/14 05:07:08;;;;;;;;;;;17.60;54.60;;;;;;5285904;26;86858;-38
2024/04/14 05:09:34;;;;;;;;;;;17.60;54.60;;;;;;5288869;26;85384;-39
2024/04/14 05:12:00;;;;;;;;;;;17.50;54.50;;;;;;5285550;26;89191;-38
2024/04/14 05:14:25;;;;;;;;;;;17.60;54.60;;;;;;5270292;26;85528;-39
2024/04/14 05:16:51;;;;;;;;;;;17.60;54.60;;;;;;5301866;26;86179;-39
2024/04/14 05:19:16;;;;;;;;;;;17.50;54.60;;;;;;5268227;26;85863;-38
2024/04/14 05:21:43;;;;;;;;;;;17.50;54.60;;;;;;5285333;26;86332;-38
2024/04/14 05:24:09;;;;;;;;;;;17.50;54.60;;;;;;5286071;26;86205;-39
2024/04/14 05:26:35;;;;;;;;;;;17.50;54.60;;;;;;5288028;26;86993;-38
2024/04/14 05:29:00;;;;;;;;;;;17.50;54.60;;;;;;5290570;26;85403;-39
2024/04/14 05:31:26;;;;;;;;;;;17.50;54.60;;;;;;5263339;26;85415;-39
2024/04/14 05:33:51;;;;;;;;;;;17.50;54.70;;;;;;5278976;26;87575;-39
2024/04/14 05:36:17;;;;;;;;;;;17.50;54.70;;;;;;5290283;26;85226;-38
2024/04/14 05:38:44;;;;;;;;;;;17.50;54.70;;;;;;5284465;26;85584;-39
2024/04/14 05:41:10;;;;;;;;;;;17.50;54.70;;;;;;5301882;26;87048;-39
2024/04/14 05:43:36;;;;;;;;;;;17.50;54.80;;;;;;5279965;26;85499;-39
2024/04/14 05:46:01;;;;;;;;;;;17.50;54.80;;;;;;5284646;26;86529;-39
2024/04/14 05:48:27;;;;;;;;;;;17.50;54.80;;;;;;5282902;26;85260;-39
2024/04/14 05:50:52;;;;;;;;;;;17.50;54.80;;;;;;5293428;26;85570;-39
2024/04/14 05:53:18;;;;;;;;;;;17.50;54.90;;;;;;5290452;26;85417;-39
2024/04/14 05:55:43;;;;;;;;;;;17.40;54.90;;;;;;5274185;26;86510;-39
2024/04/14 05:58:09;;;;;;;;;;;17.40;54.90;;;;;;5300792;26;85802;-39
2024/04/14 06:00:35;;;;;;;;;;;17.40;54.90;;;;;;5277275;26;85315;-39
2024/04/14 06:03:00;;;;;;;;;;;17.40;54.90;;;;;;5271664;26;86569;-38
2024/04/14 06:05:26;;;;;;;;;;;17.50;54.90;;;;;;5292732;26;87374;-39
2024/04/14 06:07:52;;;;;;;;;;;17.40;54.90;;;;;;5285354;26;85152;-39
2024/04/14 06:10:17;;;;;;;;;;;17.40;55.00;;;;;;5288926;26;86152;-39
2024/04/14 06:12:43;;;;;;;;;;;17.40;55.00;;;;;;5284922;26;87008;-39
2024/04/14 06:15:08;;;;;;;;;;;17.40;54.90;;;;;;5284655;26;86526;-38
2024/04/14 06:17:34;;;;;;;;;;;17.40;55.00;;;;;;5290952;26;87158;-38
2024/04/14 06:19:59;;;;;;;;;;;17.40;55.00;;;;;;5284405;26;85699;-39
2024/04/14 06:22:25;;;;;;;;;;;17.40;55.00;;;;;;5297757;26;85360;-39
2024/04/14 06:24:51;;;;;;;;;;;17.40;55.10;;;;;;5275158;26;87134;-39
2024/04/14 06:27:16;;;;;;;;;;;17.40;55.10;;;;;;5294274;26;84599;-39
2024/04/14 06:29:42;;;;;;;;;;;17.40;55.10;;;;;;5292408;26;85613;-39
2024/04/14 06:32:07;;;;;;;;;;;17.40;55.10;;;;;;5284913;26;85723;-39
2024/04/14 06:34:33;;;;;;;;;;;17.40;55.10;;;;;;5286171;26;87036;-38
2024/04/14 06:36:59;;;;;;;;;;;17.50;55.20;;;;;;5270096;26;86976;-39
2024/04/14 06:39:24;;;;;;;;;;;17.40;55.10;;;;;;5289747;26;85285;-39
2024/04/14 06:41:50;;;;;;;;;;;17.40;55.20;;;;;;5281403;26;86626;-39
2024/04/14 06:44:15;;;;;;;;;;;17.40;55.20;;;;;;5280180;26;86951;-39
2024/04/14 06:46:41;;;;;;;;;;;17.40;55.20;;;;;;5292659;26;86021;-39
2024/04/14 06:49:07;;;;;;;;;;;17.40;55.20;;;;;;5277872;26;86504;-39
2024/04/14 06:51:32;;;;;;;;;;;17.40;55.10;;;;;;5294244;26;86335;-39
2024/04/14 06:53:58;;;;;;;;;;;17.40;55.20;;;;;;5271206;26;85240;-38
2024/04/14 06:56:23;;;;;;;;;;;17.50;55.20;;;;;;5290782;26;86514;-39
2024/04/14 06:58:49;;;;;;;;;;;17.50;55.20;;;;;;5288302;26;86201;-39
2024/04/14 07:01:14;;;;;;;;;;;17.40;55.20;;;;;;5279007;26;87705;-38
2024/04/14 07:03:40;;;;;;;;;;;17.50;55.30;;;;;;5302610;26;86062;-39
2024/04/14 07:06:06;;;;;;;;;;;17.40;55.20;;;;;;5270873;26;85927;-39
2024/04/14 07:08:31;;;;;;;;;;;17.50;55.30;;;;;;5297464;26;86582;-39
2024/04/14 07:10:57;;;;;;;;;;;17.40;55.20;;;;;;5284073;26;85756;-39
2024/04/14 07:13:23;;;;;;;;;;;17.40;55.20;;;;;;5279795;26;85318;-39
2024/04/14 07:15:48;;;;;;;;;;;17.50;55.30;;;;;;5295202;26;86326;-39
2024/04/14 07:18:16;;;;;;;;;;;17.40;55.30;;;;;;5279024;26;85783;-39
2024/04/14 07:20:42;;;;;;;;;;;17.50;55.40;;;;;;5281881;26;86674;-39
2024/04/14 07:23:08;;;;;;;;;;;17.40;55.40;;;;;;5272975;26;86925;-39
2024/04/14 07:25:33;;;;;;;;;;;17.40;55.40;;;;;;5286826;26;85765;-40
2024/04/14 07:27:59;;;;;;;;;;;17.40;55.40;;;;;;5289081;26;86551;-39
2024/04/14 07:30:24;;;;;;;;;;;17.40;55.40;;;;;;5273802;26;86866;-39
2024/04/14 07:32:50;;;;;;;;;;;17.40;55.40;;;;;;5292922;26;85569;-39
2024/04/14 07:35:15;;;;;;;;;;;17.40;55.40;;;;;;5281240;26;85590;-39
2024/04/14 07:37:41;;;;;;;;;;;17.40;55.50;;;;;;5273861;26;86277;-39
2024/04/14 07:40:07;;;;;;;;;;;17.40;55.50;;;;;;5293160;26;85048;-38
2024/04/14 07:42:32;;;;;;;;;;;17.40;55.50;;;;;;5282231;26;85645;-39
2024/04/14 07:44:58;;;;;;;;;;;17.40;55.50;;;;;;5296529;26;85076;-39
2024/04/14 07:47:23;;;;;;;;;;;17.50;55.60;;;;;;5264841;26;86818;-40
2024/04/14 07:49:49;;;;;;;;;;;17.40;55.60;;;;;;5283392;26;87276;-39
2024/04/14 07:52:14;;;;;;;;;;;17.40;55.60;;;;;;5281832;26;85289;-39
2024/04/14 07:54:40;;;;;;;;;;;17.50;55.60;;;;;;5277048;26;85412;-39
2024/04/14 07:57:07;;;;;;;;;;;17.50;55.70;;;;;;5284032;26;86313;-39
2024/04/14 07:59:32;;;;;;;;;;;17.40;55.60;;;;;;5279707;26;85294;-39
2024/04/14 08:01:58;;;;;;;;;;;17.40;55.60;;;;;;5295006;26;85996;-39
2024/04/14 08:04:23;;;;;;;;;;;17.40;55.60;;;;;;5280164;26;85444;-39
2024/04/14 08:06:49;;;;;;;;;;;17.40;55.60;;;;;;5282434;26;85580;-40
2024/04/14 08:09:15;;;;;;;;;;;17.40;55.60;;;;;;5299550;26;87060;-39
2024/04/14 08:11:40;;;;;;;;;;;17.40;55.60;;;;;;5275155;26;86232;-39
2024/04/14 08:14:08;;;;;;;;;;;17.40;55.60;;;;;;5292557;26;86430;-40
2024/04/14 08:16:34;;;;;;;;;;;17.50;55.70;;;;;;5270110;26;86934;-39
2024/04/14 08:19:00;;;;;;;;;;;17.50;55.70;;;;;;5285739;26;85919;-39
2024/04/14 08:21:25;;;;;;;;;;;17.50;55.70;;;;;;5285707;26;86484;-39
2024/04/14 08:23:51;;;;;;;;;;;17.40;55.60;;;;;;5280397;26;85760;-39
2024/04/14 08:26:17;;;;;;;;;;;17.50;55.80;;;;;;5302592;26;86648;-39
2024/04/14 08:28:42;;;;;;;;;;;17.50;55.70;;;;;;5263803;26;85312;-39
2024/04/14 08:31:08;;;;;;;;;;;17.40;55.60;;;;;;5290328;26;85486;-39
2024/04/14 08:33:33;;;;;;;;;;;17.50;55.70;;;;;;5272673;26;86223;-39
2024/04/14 08:35:59;;;;;;;;;;;17.50;55.60;;;;;;5281253;26;87927;-39
2024/04/14 08:38:24;;;;;;;;;;;17.50;55.70;;;;;;5294220;26;85369;-39
2024/04/14 08:40:53;;;;;;;;;;;17.50;55.70;;;;;;5273334;26;85342;-39
2024/04/14 08:43:19;;;;;;;;;;;17.50;55.70;;;;;;5292394;26;85767;-39
2024/04/14 08:45:45;;;;;;;;;;;17.50;55.70;;;;;;5276820;26;86830;-39
2024/04/14 08:48:13;;;;;;;;;;;17.50;55.70;;;;;;5278721;26;87210;-39
2024/04/14 08:50:38;;;;;;;;;;;17.50;55.70;;;;;;5299241;26;86042;-39
2024/04/14 08:53:06;;;;;;;;;;;17.50;55.70;;;;;;5277023;26;87286;-39
2024/04/14 08:55:31;;;;;;;;;;;17.50;55.60;;;;;;5293705;26;85712;-39
2024/04/14 08:57:57;;;;;;;;;;;17.50;55.60;;;;;;5261322;26;85287;-39
2024/04/14 09:00:23;;;;;;;;;;;17.50;55.60;;;;;;5282670;26;86197;-40
2024/04/14 09:02:49;;;;;;;;;;;17.50;55.70;;;;;;5283432;26;86852;-39
2024/04/14 09:05:15;;;;;;;;;;;17.60;55.70;;;;;;5287898;26;85579;-39
2024/04/14 09:07:41;;;;;;;;;;;17.60;55.70;;;;;;5299916;26;85982;-39
2024/04/14 09:10:07;;;;;;;;;;;17.60;55.70;;;;;;5277418;26;85507;-39
2024/04/14 09:12:33;;;;;;;;;;;17.60;55.80;;;;;;5296147;26;86655;-40
2024/04/14 09:14:59;;;;;;;;;;;17.60;55.70;;;;;;5283377;26;87411;-39
2024/04/14 09:17:24;;;;;;;;;;;17.60;55.90;;;;;;5291073;26;85240;-39
2024/04/14 09:19:50;;;;;;;;;;;17.60;55.80;;;;;;5305497;26;85187;-39
2024/04/14 09:22:16;;;;;;;;;;;17.60;55.70;;;;;;5274501;26;86923;-39
2024/04/14 09:24:41;;;;;;;;;;;17.60;55.60;;;;;;5297275;26;87412;-39
2024/04/14 09:27:07;;;;;;;;;;;17.70;55.60;;;;;;5270508;26;86473;-39
2024/04/14 09:29:33;;;;;;;;;;;17.70;55.90;;;;;;5291317;26;85420;-40
2024/04/14 09:31:59;;;;;;;;;;;17.70;55.70;;;;;;5283032;26;86222;-39
2024/04/14 09:34:25;;;;;;;;;;;17.70;55.70;;;;;;5264508;26;85219;-39
2024/04/14 09:36:51;;;;;;;;;;;17.70;55.70;;;;;;5296169;26;86936;-39
2024/04/14 09:39:20;;;;;;;;;;;17.70;55.70;;;;;;5275968;26;85848;-39
2024/04/14 09:41:45;;;;;;;;;;;17.70;55.80;;;;;;5285648;26;86490;-39
2024/04/14 09:44:11;;;;;;;;;;;17.70;55.60;;;;;;5297025;26;85866;-39
2024/04/14 09:46:37;;;;;;;;;;;17.70;55.70;;;;;;5290562;26;85694;-39
2024/04/14 09:49:04;;;;;;;;;;;17.80;55.80;;;;;;5291518;26;86287;-40
2024/04/14 09:51:29;;;;;;;;;;;17.80;55.70;;;;;;5280805;26;86408;-39
2024/04/14 09:53:56;;;;;;;;;;;17.80;55.70;;;;;;5285274;26;86297;-39
2024/04/14 09:56:23;;;;;;;;;;;17.80;55.70;;;;;;5275956;26;85303;-39
2024/04/14 09:58:49;;;;;;;;;;;17.80;55.60;;;;;;5285413;26;85799;-39
2024/04/14 10:01:19;;;;;;;;;;;17.90;55.70;;;;;;5280204;26;87034;-40
2024/04/14 10:03:45;;;;;;;;;;;17.90;55.70;;;;;;5276396;26;85358;-39
2024/04/14 10:06:11;;;;;;;;;;;17.90;55.70;;;;;;5296249;26;86072;-39
2024/04/14 10:08:37;;;;;;;;;;;17.90;55.70;;;;;;5279537;26;86852;-38
2024/04/14 10:11:04;;;;;;;;;;;17.90;55.70;;;;;;5283438;26;85828;-39
2024/04/14 10:13:29;;;;;;;;;;;17.90;55.70;;;;;;5284395;26;88311;-39
2024/04/14 10:15:58;;;;;;;;;;;17.90;55.70;;;;;;5276722;26;85359;-39
2024/04/14 10:18:24;;;;;;;;;;;18.00;55.80;;;;;;5304410;26;85207;-39
2024/04/14 10:20:50;;;;;;;;;;;18.00;55.80;;;;;;5270989;26;85695;-39
2024/04/14 10:23:19;;;;;;;;;;;18.00;55.80;;;;;;5290400;26;85901;-40
2024/04/14 10:25:48;;;;;;;;;;;18.00;55.80;;;;;;5277157;26;85348;-40
2024/04/14 10:28:20;;;;;;;;;;;18.00;55.70;;;;;;5278853;26;86329;-39
2024/04/14 10:30:48;;;;;;;;;;;18.10;55.90;;;;;;5289791;26;84593;-39
2024/04/14 10:33:23;;;;;;;;;;;18.10;55.90;;;;;;5283303;26;86735;-39
2024/04/14 10:36:05;;;;;;;;;;;18.10;55.90;;;;;;5283100;26;86041;-39
2024/04/14 10:38:32;;;;;;;;;;;18.10;55.80;;;;;;5268814;26;86674;-39
2024/04/14 10:40:58;;;;;;;;;;;18.10;55.80;;;;;;5282937;26;87279;-39
2024/04/14 10:43:24;;;;;;;;;;;18.20;55.90;;;;;;5288170;26;86017;-39
2024/04/14 10:45:49;;;;;;;;;;;18.20;55.90;;;;;;5283540;26;86570;-39
2024/04/14 10:48:15;;;;;;;;;;;18.20;55.90;;;;;;5300824;26;87313;-39
2024/04/14 10:50:44;;;;;;;;;;;18.20;55.80;;;;;;5277030;26;85349;-39
2024/04/14 10:53:10;;;;;;;;;;;18.20;55.80;;;;;;5299901;26;88523;-39
2024/04/14 10:55:36;;;;;;;;;;;18.30;55.90;;;;;;5273074;26;84516;-39
2024/04/14 10:58:01;;;;;;;;;;;18.30;55.80;;;;;;5285932;26;86080;-39
2024/04/14 11:00:27;;;;;;;;;;;18.30;55.80;;;;;;5283166;26;87012;-39
2024/04/14 11:02:53;;;;;;;;;;;18.30;55.80;;;;;;5277181;26;86244;-39
2024/04/14 11:05:19;;;;;;;;;;;18.40;55.90;;;;;;5293813;26;87796;-39
2024/04/14 11:07:45;;;;;;;;;;;18.40;55.90;;;;;;5274966;26;86902;-39
2024/04/14 11:10:11;;;;;;;;;;;18.40;55.90;;;;;;5274355;26;85299;-39
2024/04/14 11:12:37;;;;;;;;;;;18.40;55.80;;;;;;5285040;26;86629;-39
2024/04/14 11:15:04;;;;;;;;;;;18.50;55.90;;;;;;5278815;26;86280;-40
2024/04/14 11:17:29;;;;;;;;;;;18.50;55.90;;;;;;5294551;26;85775;-40
2024/04/14 11:19:57;;;;;;;;;;;18.50;55.80;;;;;;5268673;26;85186;-39
2024/04/14 11:22:23;;;;;;;;;;;18.50;55.80;;;;;;5293814;26;85365;-39
2024/04/14 11:24:49;;;;;;;;;;;18.50;55.80;;;;;;5281699;26;86591;-39
2024/04/14 11:27:15;;;;;;;;;;;18.50;55.80;;;;;;5280892;26;87088;-39
2024/04/14 11:29:42;;;;;;;;;;;18.50;55.70;;;;;;5300042;26;85711;-39
2024/04/14 11:32:28;;;;;;;;;;;18.60;55.80;;;;;;5261765;26;86693;-39
2024/04/14 11:34:55;;;;;;;;;;;18.60;55.80;;;;;;5295101;26;86054;-39
2024/04/14 11:37:21;;;;;;;;;;;18.60;55.80;;;;;;5266427;26;85137;-39
2024/04/14 11:39:50;;;;;;;;;;;18.60;55.70;;;;;;5283147;26;86886;-39
2024/04/14 11:42:17;;;;;;;;;;;18.60;55.70;;;;;;5281494;26;85423;-39
2024/04/14 11:44:42;;;;;;;;;;;18.70;55.70;;;;;;5283043;26;85314;-39
2024/04/14 11:47:08;;;;;;;;;;;18.70;55.80;;;;;;5294196;26;85717;-39
2024/04/14 11:49:34;;;;;;;;;;;18.70;55.70;;;;;;5274353;26;86190;-40
2024/04/14 11:51:59;;;;;;;;;;;18.80;55.70;;;;;;5290012;26;87359;-39
2024/04/14 11:54:25;;;;;;;;;;;18.80;55.80;;;;;;5289028;26;85625;-39
2024/04/14 11:56:52;;;;;;;;;;;18.80;55.80;;;;;;5287836;26;85674;-39
2024/04/14 11:59:19;;;;;;;;;;;18.80;55.70;;;;;;5297668;26;85753;-39
2024/04/14 12:01:45;;;;;;;;;;;18.90;55.80;;;;;;5278611;26;85265;-40
2024/04/14 12:04:10;;;;;;;;;;;18.90;55.80;;;;;;5286313;26;85625;-39
2024/04/14 12:06:36;;;;;;;;;;;18.90;55.70;;;;;;5270887;26;87043;-39
2024/04/14 12:09:01;;;;;;;;;;;18.90;55.70;;;;;;5280046;26;84955;-40
2024/04/14 12:11:27;;;;;;;;;;;19.00;55.70;;;;;;5290659;26;85805;-40
2024/04/14 12:13:52;;;;;;;;;;;19.00;55.70;;;;;;5281564;26;86931;-39
2024/04/14 12:16:18;;;;;;;;;;;19.00;55.70;;;;;;5297675;26;86316;-40
2024/04/14 12:18:44;;;;;;;;;;;19.00;55.70;;;;;;5272757;26;87688;-39
2024/04/14 12:21:09;;;;;;;;;;;19.10;55.80;;;;;;5285894;26;85307;-39
2024/04/14 12:23:35;;;;;;;;;;;19.10;55.80;;;;;;5291907;26;85357;-40
2024/04/14 12:26:01;;;;;;;;;;;19.10;55.80;;;;;;5279798;26;87550;-39
2024/04/14 12:28:26;;;;;;;;;;;19.10;55.70;;;;;;5292762;26;85463;-39
2024/04/14 12:30:52;;;;;;;;;;;19.20;55.80;;;;;;5271853;26;85888;-39
2024/04/14 12:33:17;;;;;;;;;;;19.20;55.80;;;;;;5289965;26;85332;-40
2024/04/14 12:35:43;;;;;;;;;;;19.20;55.80;;;;;;5266369;26;85224;-39
2024/04/14 12:38:09;;;;;;;;;;;19.20;55.80;;;;;;5284009;26;86672;-39
2024/04/14 12:40:35;;;;;;;;;;;19.30;55.80;;;;;;5287446;26;87771;-39
2024/04/14 12:43:01;;;;;;;;;;;19.30;55.70;;;;;;5269540;26;87093;-39
2024/04/14 12:45:28;;;;;;;;;;;19.30;55.70;;;;;;5291499;26;87076;-39
2024/04/14 12:47:53;;;;;;;;;;;19.30;55.60;;;;;;5270391;26;85433;-39
2024/04/14 12:50:19;;;;;;;;;;;19.30;55.60;;;;;;5275384;26;86845;-39
2024/04/14 12:52:45;;;;;;;;;;;19.40;55.70;;;;;;5295159;26;86138;-39
2024/04/14 12:55:11;;;;;;;;;;;19.40;55.60;;;;;;5280656;26;85370;-40
2024/04/14 12:57:37;;;;;;;;;;;19.40;55.60;;;;;;5291020;26;86665;-39
2024/04/14 13:00:03;;;;;;;;;;;19.40;55.50;;;;;;5268684;26;86947;-39
2024/04/14 13:02:29;;;;;;;;;;;19.50;55.60;;;;;;5289508;26;85519;-39
2024/04/14 13:04:54;;;;;;;;;;;19.50;55.70;;;;;;5284868;26;88267;-39
2024/04/14 13:07:20;;;;;;;;;;;19.50;55.60;;;;;;5283516;26;85436;-39
2024/04/14 13:09:45;;;;;;;;;;;19.50;55.60;;;;;;5296200;26;85367;-39
2024/04/14 13:12:11;;;;;;;;;;;19.50;55.60;;;;;;5272458;26;87022;-41
2024/04/14 13:14:37;;;;;;;;;;;19.60;55.60;;;;;;5281890;26;85393;-39
2024/04/14 13:17:03;;;;;;;;;;;19.60;55.60;;;;;;5287644;26;86896;-40
2024/04/14 13:19:32;;;;;;;;;;;19.60;55.60;;;;;;5282743;26;86527;-39
2024/04/14 13:21:59;;;;;;;;;;;19.70;55.60;;;;;;5294954;26;84791;-40
2024/04/14 13:24:24;;;;;;;;;;;19.70;55.60;;;;;;5273712;26;85910;-40
2024/04/14 13:26:50;;;;;;;;;;;19.70;55.60;;;;;;5295648;26;85254;-40
2024/04/14 13:29:16;;;;;;;;;;;19.70;55.60;;;;;;5271356;26;86204;-39
2024/04/14 13:31:41;;;;;;;;;;;19.80;55.50;;;;;;5293601;26;87239;-39
2024/04/14 13:34:07;;;;;;;;;;;19.80;55.60;;;;;;5297093;26;85374;-39
2024/04/14 13:36:33;;;;;;;;;;;19.80;55.60;;;;;;5269090;26;86673;-39
2024/04/14 13:38:59;;;;;;;;;;;19.90;55.60;;;;;;5289433;26;85995;-40
2024/04/14 13:41:26;;;;;;;;;;;19.90;55.60;;;;;;5270837;26;85376;-39
2024/04/14 13:43:56;;;;;;;;;;;20.00;55.60;;;;;;5284195;26;86446;-40
2024/04/14 13:46:25;;;;;;;;;;;20.00;55.60;;;;;;5284519;26;85054;-39
2024/04/14 13:48:50;;;;;;;;;;;20.00;55.50;;;;;;5279442;26;85971;-40
2024/04/14 13:51:16;;;;;;;;;;;20.00;55.40;;;;;;5299028;26;85499;-39
2024/04/14 13:53:41;;;;;;;;;;;20.10;55.30;;;;;;5280839;26;86272;-39
2024/04/14 13:56:07;;;;;;;;;;;20.10;55.20;;;;;;5291425;26;86648;-39
2024/04/14 13:58:34;;;;;;;;;;;20.10;55.20;;;;;;5286201;26;85512;-39
2024/04/14 14:00:59;;;;;;;;;;;20.20;55.20;;;;;;5280748;26;85286;-40
2024/04/14 14:03:25;;;;;;;;;;;20.20;55.20;;;;;;5288693;26;86514;-40
2024/04/14 14:05:51;;;;;;;;;;;20.20;55.20;;;;;;5274840;26;86580;-40
2024/04/14 14:08:16;;;;;;;;;;;20.30;55.10;;;;;;5287219;26;86779;-40